Haysville, Kansas
Current Conditions -  °F | °C
As of 11:03 PM on Sunday 21 Dec 2014 (Local Time) from KIAB Reporting Station
Haze Haze  
Wind Chill: 35°   Ceiling: 400
Heat Index: 43°   Visibility: 6mi
Dew Point: 43°   Wind: 16mph
Humidity: 100%   Direction: 150°SSE
Pressure: 29.66"   Gusts: NA
Location:  37.56°N, 97.35°W
Report Text: KIAB 220503Z AUTO 15014KT 6SM R19/5000FT BR OVC004 06/06 A2966 RMK AO2
Loading
Personal Weather Stations






























Interactive Weather Map New forecast layout! Learn more

10-Day Weather Forecast

Advertisements
Track Severe Weather on mobile